createdAt,value
2018-11-28T00:02:41.271Z,80.30
2018-11-28T00:05:12.236Z,80.30
2018-11-28T00:07:42.266Z,80.23
2018-11-28T00:10:13.259Z,80.24
2018-11-28T00:12:43.047Z,80.24
2018-11-28T00:15:32.181Z,80.32
2018-11-28T00:18:01.745Z,80.39
2018-11-28T00:20:31.341Z,80.47
2018-11-28T00:23:00.954Z,80.43
2018-11-28T00:25:30.585Z,80.49
2018-11-28T00:28:19.148Z,80.51
2018-11-28T00:30:48.761Z,80.57
2018-11-28T00:33:18.323Z,80.56
2018-11-28T00:35:48.399Z,80.57
2018-11-28T00:38:18.227Z,80.63
2018-11-28T00:40:47.785Z,80.62
2018-11-28T00:43:17.420Z,80.61
2018-11-28T00:45:46.995Z,80.66
2018-11-28T00:48:16.558Z,80.85
2018-11-28T00:50:46.272Z,80.76
2018-11-28T00:53:15.844Z,80.73
2018-11-28T00:55:48.499Z,80.68
2018-11-28T00:58:15.059Z,80.70
2018-11-28T01:00:44.629Z,80.72
2018-11-28T01:03:14.199Z,80.71
2018-11-28T01:05:43.797Z,80.71
2018-11-28T01:08:13.545Z,80.73
2018-11-28T01:10:43.123Z,80.77
2018-11-28T01:13:12.750Z,80.74
2018-11-28T01:15:42.314Z,80.72
2018-11-28T01:18:11.887Z,80.75
2018-11-28T01:20:41.497Z,80.75
2018-11-28T01:23:11.362Z,80.72
2018-11-28T01:25:40.979Z,80.67
2018-11-28T01:28:10.587Z,80.68
2018-11-28T01:30:40.169Z,80.72
2018-11-28T01:33:09.883Z,80.77
2018-11-28T01:35:39.479Z,80.79
2018-11-28T01:38:09.062Z,80.83
2018-11-28T01:40:38.635Z,80.84
2018-11-28T01:43:08.636Z,80.82
2018-11-28T01:45:38.214Z,80.85
2018-11-28T01:48:07.792Z,80.89
2018-11-28T01:50:37.417Z,81.00
2018-11-28T01:53:07.036Z,80.96
2018-11-28T01:55:36.603Z,81.01
2018-11-28T01:58:06.361Z,80.97
2018-11-28T02:00:35.964Z,80.95
2018-11-28T02:03:05.542Z,80.92
2018-11-28T02:05:35.167Z,80.91
2018-11-28T02:08:04.743Z,80.95
2018-11-28T02:10:53.385Z,81.06
2018-11-28T02:13:22.966Z,81.02
2018-11-28T02:15:52.547Z,80.97
2018-11-28T02:18:22.155Z,80.99
2018-11-28T02:20:51.736Z,81.03
2018-11-28T02:23:21.590Z,81.03
2018-11-28T02:25:51.535Z,81.05
2018-11-28T02:28:21.181Z,81.04
2018-11-28T02:30:50.701Z,81.02
2018-11-28T02:33:20.333Z,81.04
2018-11-28T02:35:49.903Z,81.06
2018-11-28T02:38:19.477Z,81.06
2018-11-28T02:40:49.119Z,81.06
2018-11-28T02:43:18.747Z,81.02
2018-11-28T02:46:26.358Z,80.98
2018-11-28T02:48:56.092Z,80.97
2018-11-28T02:51:25.667Z,80.96
2018-11-28T02:53:55.272Z,80.97
2018-11-28T02:56:24.924Z,81.02
2018-11-28T02:58:54.542Z,81.03
2018-11-28T03:01:24.171Z,81.05
2018-11-28T03:03:53.755Z,81.05
2018-11-28T03:06:23.342Z,81.06
2018-11-28T03:08:53.028Z,81.07
2018-11-28T03:11:22.831Z,81.09
2018-11-28T03:13:52.429Z,81.12
2018-11-28T03:16:22.058Z,81.15
2018-11-28T03:18:51.621Z,81.14
2018-11-28T03:21:24.128Z,81.10
2018-11-28T03:23:53.733Z,81.09
2018-11-28T03:26:23.550Z,81.03
2018-11-28T03:28:53.121Z,81.02
2018-11-28T03:31:22.718Z,81.06
2018-11-28T03:33:52.315Z,81.11
2018-11-28T03:36:21.931Z,81.12
2018-11-28T03:38:51.571Z,81.21
2018-11-28T03:41:21.137Z,81.29
2018-11-28T03:43:51.013Z,81.27
2018-11-28T03:46:20.616Z,81.27
2018-11-28T03:48:50.208Z,81.22
2018-11-28T03:51:19.797Z,81.18
2018-11-28T03:54:08.322Z,81.18
2018-11-28T03:56:38.057Z,81.12
2018-11-28T03:59:07.997Z,81.06
2018-11-28T04:01:37.596Z,81.06
2018-11-28T04:04:07.260Z,81.04
2018-11-28T04:06:36.831Z,81.09
2018-11-28T04:09:09.215Z,81.10
2018-11-28T04:11:38.792Z,81.12
2018-11-28T04:14:08.670Z,81.12
2018-11-28T04:16:38.342Z,81.11
2018-11-28T04:19:07.927Z,81.14
2018-11-28T04:21:37.510Z,81.12
2018-11-28T04:24:07.132Z,81.09
2018-11-28T04:26:36.812Z,81.02
2018-11-28T04:29:06.721Z,81.06
2018-11-28T04:31:36.383Z,81.07
2018-11-28T04:34:24.876Z,81.14
2018-11-28T04:36:54.896Z,81.10
2018-11-28T04:39:24.471Z,81.07
2018-11-28T04:41:54.036Z,81.04
2018-11-28T04:44:23.993Z,81.04
2018-11-28T04:46:53.561Z,81.08
2018-11-28T04:49:23.143Z,81.11
2018-11-28T04:51:52.749Z,81.10
2018-11-28T04:54:22.319Z,81.10
2018-11-28T04:56:51.905Z,81.11
2018-11-28T04:59:21.812Z,81.15
2018-11-28T05:01:51.416Z,81.09
2018-11-28T05:04:20.998Z,81.05
2018-11-28T05:07:28.652Z,81.03
2018-11-28T05:09:59.103Z,81.05
2018-11-28T05:12:28.721Z,81.04
2018-11-28T05:15:17.011Z,80.98
2018-11-28T05:17:53.602Z,80.95
2018-11-28T05:20:24.129Z,80.94
2018-11-28T05:22:53.725Z,80.97
2018-11-28T05:25:24.317Z,81.00
2018-11-28T05:27:54.747Z,81.02
2018-11-28T05:30:43.783Z,80.95
2018-11-28T05:33:32.310Z,80.99
2018-11-28T05:36:01.904Z,81.04
2018-11-28T05:38:31.487Z,81.06
2018-11-28T05:41:01.177Z,81.12
2018-11-28T05:43:30.848Z,81.20
2018-11-28T05:46:00.365Z,81.13
2018-11-28T05:48:30.135Z,81.08
2018-11-28T05:50:59.722Z,81.08
2018-11-28T05:53:29.305Z,81.08
2018-11-28T05:55:59.104Z,81.07
2018-11-28T05:58:28.615Z,81.11
2018-11-28T06:00:58.387Z,81.23
2018-11-28T06:03:28.081Z,81.29
2018-11-28T06:05:57.709Z,81.22
2018-11-28T06:08:27.350Z,81.19
2018-11-28T06:10:57.005Z,81.19
2018-11-28T06:13:26.635Z,81.35
2018-11-28T06:15:56.325Z,81.46
2018-11-28T06:18:25.987Z,81.49
2018-11-28T06:20:55.887Z,81.56
2018-11-28T06:23:25.543Z,81.61
2018-11-28T06:25:55.183Z,81.81
2018-11-28T06:28:24.766Z,82.10
2018-11-28T06:30:54.390Z,82.28
2018-11-28T06:33:42.982Z,82.51
2018-11-28T06:36:12.600Z,82.67
2018-11-28T06:38:42.183Z,82.83
2018-11-28T06:41:11.812Z,82.99
2018-11-28T06:43:41.406Z,83.13
2018-11-28T06:46:11.083Z,83.24
2018-11-28T06:48:40.720Z,83.37
2018-11-28T06:51:28.948Z,83.42
2018-11-28T06:53:58.549Z,83.49
2018-11-28T06:56:28.129Z,83.54
2018-11-28T06:58:57.713Z,83.61
2018-11-28T07:01:27.618Z,83.67
2018-11-28T07:03:57.145Z,83.75
2018-11-28T07:06:26.734Z,83.87
2018-11-28T07:08:56.371Z,83.94
2018-11-28T07:11:25.995Z,84.03
2018-11-28T07:13:55.853Z,84.11
2018-11-28T07:16:25.546Z,84.14
2018-11-28T07:19:14.345Z,84.21
2018-11-28T07:21:43.997Z,84.29
2018-11-28T07:24:13.567Z,84.28
2018-11-28T07:26:43.151Z,84.37
2018-11-28T07:29:12.839Z,84.50
2018-11-28T07:31:42.416Z,84.53
2018-11-28T07:34:12.040Z,84.58
2018-11-28T07:36:41.669Z,84.62
2018-11-28T07:39:11.269Z,84.67
2018-11-28T07:41:40.837Z,84.74
2018-11-28T07:46:46.141Z,84.87
2018-11-28T07:49:15.705Z,84.86
2018-11-28T07:51:45.292Z,84.96
2018-11-28T07:56:49.859Z,85.08
2018-11-28T07:59:19.493Z,85.06
2018-11-28T08:01:49.219Z,85.05
2018-11-28T08:04:19.017Z,85.09
2018-11-28T08:06:48.416Z,85.15
2018-11-28T08:09:17.995Z,85.23
2018-11-28T08:11:47.601Z,85.23
2018-11-28T08:14:17.226Z,85.25
2018-11-28T08:16:48.154Z,85.22
2018-11-28T08:19:16.693Z,85.30
2018-11-28T08:21:46.361Z,85.32
2018-11-28T08:24:15.926Z,85.27
2018-11-28T08:26:45.476Z,85.23
2018-11-28T08:29:15.215Z,85.24
2018-11-28T08:31:44.683Z,85.19
2018-11-28T08:34:14.256Z,85.23
2018-11-28T08:36:43.881Z,85.21
2018-11-28T08:39:13.457Z,85.24
2018-11-28T08:41:43.056Z,85.38
2018-11-28T08:44:12.699Z,85.55
2018-11-28T08:46:42.293Z,85.62
2018-11-28T08:49:12.304Z,85.61
2018-11-28T08:51:42.220Z,85.75
2018-11-28T08:54:11.824Z,85.88
2018-11-28T08:56:41.606Z,86.04
2018-11-28T08:59:11.195Z,86.16
2018-11-28T09:01:41.135Z,86.47
2018-11-28T09:04:11.517Z,86.58
2018-11-28T09:06:41.091Z,86.78
2018-11-28T09:09:10.678Z,87.04
2018-11-28T09:11:40.289Z,87.52
2018-11-28T09:14:09.931Z,87.58
2018-11-28T09:16:39.504Z,87.95
2018-11-28T09:19:09.515Z,88.77
2018-11-28T09:21:39.091Z,89.33
2018-11-28T09:24:08.722Z,89.79
2018-11-28T09:26:38.334Z,89.96
2018-11-28T09:29:08.030Z,90.11
2018-11-28T09:31:37.620Z,90.33
2018-11-28T09:34:07.320Z,90.17
2018-11-28T09:36:37.112Z,89.77
2018-11-28T09:39:07.756Z,88.94
2018-11-28T09:41:37.367Z,88.84
2018-11-28T09:44:06.934Z,88.30
2018-11-28T09:46:36.530Z,86.93
2018-11-28T09:49:06.336Z,87.22
2018-11-28T09:51:35.997Z,86.08
2018-11-28T09:54:06.120Z,86.16
2018-11-28T09:56:35.747Z,85.26
2018-11-28T09:59:05.405Z,84.04
2018-11-28T10:01:34.965Z,83.00
2018-11-28T10:04:04.608Z,82.68
2018-11-28T10:06:34.206Z,81.94
2018-11-28T10:09:03.836Z,79.82
2018-11-28T10:11:33.437Z,78.58
2018-11-28T10:14:03.037Z,77.51
2018-11-28T10:16:32.635Z,76.79
2018-11-28T10:19:02.267Z,76.22
2018-11-28T10:21:32.120Z,75.95
2018-11-28T10:24:02.063Z,75.89
2018-11-28T10:26:31.618Z,76.13
2018-11-28T10:29:01.203Z,76.06
2018-11-28T10:31:30.778Z,76.02
2018-11-28T10:34:00.557Z,76.13
2018-11-28T10:36:30.126Z,76.37
2018-11-28T10:39:00.335Z,76.42
2018-11-28T10:41:29.998Z,76.39
2018-11-28T10:43:59.589Z,76.42
2018-11-28T10:46:29.144Z,76.42
2018-11-28T10:48:58.773Z,76.52
2018-11-28T10:51:28.417Z,76.55
2018-11-28T10:53:58.379Z,76.61
2018-11-28T10:56:27.973Z,76.94
2018-11-28T10:58:57.698Z,77.04
2018-11-28T11:01:29.663Z,77.04
2018-11-28T11:04:17.899Z,77.11
2018-11-28T11:07:06.120Z,77.15
2018-11-28T11:09:54.990Z,77.14
2018-11-28T11:12:43.209Z,77.20
2018-11-28T11:15:12.829Z,77.30
2018-11-28T11:17:42.467Z,77.58
2018-11-28T11:20:12.065Z,77.81
2018-11-28T11:22:41.682Z,77.86
2018-11-28T11:25:11.595Z,77.71
2018-11-28T11:27:41.164Z,77.74
2018-11-28T11:30:11.936Z,77.75
2018-11-28T11:32:41.521Z,77.93
2018-11-28T11:35:11.441Z,77.90
2018-11-28T11:37:41.104Z,78.07
2018-11-28T11:40:29.997Z,77.87
2018-11-28T11:42:59.620Z,77.83
2018-11-28T11:45:29.199Z,77.79
2018-11-28T11:47:58.782Z,77.68
2018-11-28T11:50:28.424Z,77.63
2018-11-28T11:52:57.987Z,77.80
2018-11-28T11:55:27.872Z,78.06
2018-11-28T11:57:57.787Z,78.09
2018-11-28T12:00:28.128Z,78.22
2018-11-28T12:03:26.995Z,78.06
2018-11-28T12:06:15.546Z,78.00
2018-11-28T12:08:45.375Z,78.16
2018-11-28T12:11:14.955Z,77.94
2018-11-28T12:13:45.003Z,77.77
2018-11-28T12:16:14.609Z,77.82
2018-11-28T12:18:44.188Z,77.54
2018-11-28T12:21:13.756Z,76.86
2018-11-28T12:23:43.343Z,76.32
2018-11-28T12:26:12.906Z,76.16
2018-11-28T12:28:42.569Z,75.63
2018-11-28T12:31:12.198Z,75.31
2018-11-28T12:33:41.763Z,74.76
2018-11-28T12:36:11.943Z,74.05
2018-11-28T12:38:41.566Z,73.27
2018-11-28T12:41:11.130Z,72.34
2018-11-28T12:43:40.982Z,71.94
2018-11-28T12:46:10.725Z,72.33
2018-11-28T12:48:40.286Z,72.88
2018-11-28T12:51:09.902Z,73.09
2018-11-28T12:53:39.514Z,73.24
2018-11-28T12:56:09.099Z,73.44
2018-11-28T12:58:38.679Z,73.56
2018-11-28T13:01:08.596Z,73.63
2018-11-28T13:03:38.184Z,73.65
2018-11-28T13:06:07.773Z,73.74
2018-11-28T13:08:39.485Z,73.87
2018-11-28T13:11:09.642Z,73.93
2018-11-28T13:13:39.245Z,73.97
2018-11-28T13:16:09.228Z,74.04
2018-11-28T13:18:38.819Z,74.08
2018-11-28T13:21:09.372Z,74.19
2018-11-28T13:23:38.025Z,74.25
2018-11-28T13:26:07.656Z,74.35
2018-11-28T13:28:37.228Z,74.44
2018-11-28T13:31:07.400Z,74.47
2018-11-28T13:33:37.347Z,74.47
2018-11-28T13:36:07.141Z,74.46
2018-11-28T13:38:36.894Z,74.54
2018-11-28T13:41:06.820Z,74.64
2018-11-28T13:43:36.430Z,74.72
2018-11-28T13:46:07.428Z,74.70
2018-11-28T13:48:36.911Z,74.62
2018-11-28T13:51:06.723Z,74.62
2018-11-28T13:53:36.427Z,74.68
2018-11-28T13:58:36.079Z,74.69
2018-11-28T14:01:05.962Z,74.72
2018-11-28T14:03:35.794Z,74.83
2018-11-28T14:06:05.645Z,74.90
2018-11-28T14:08:35.499Z,74.95
2018-11-28T14:11:05.075Z,74.92
2018-11-28T14:13:34.668Z,74.94
2018-11-28T14:16:04.341Z,74.99
2018-11-28T14:18:33.920Z,75.14
2018-11-28T14:21:03.543Z,75.11
2018-11-28T14:23:33.452Z,75.11
2018-11-28T14:26:03.045Z,75.17
2018-11-28T14:28:32.630Z,75.15
2018-11-28T14:31:02.473Z,75.18
2018-11-28T14:33:32.089Z,75.14
2018-11-28T14:36:01.659Z,75.07
2018-11-28T14:38:31.628Z,75.07
2018-11-28T14:41:01.209Z,75.03
2018-11-28T14:43:30.776Z,75.11
2018-11-28T14:46:00.632Z,75.07
2018-11-28T14:48:30.231Z,75.16
2018-11-28T14:50:59.803Z,75.25
2018-11-28T14:53:29.700Z,75.33
2018-11-28T14:55:59.246Z,75.30
2018-11-28T14:58:28.859Z,75.34
2018-11-28T15:00:58.682Z,75.40
2018-11-28T15:03:28.255Z,75.49
2018-11-28T15:06:35.902Z,75.47
2018-11-28T15:09:35.432Z,75.59
2018-11-28T15:12:11.755Z,75.63
2018-11-28T15:14:39.847Z,75.55
2018-11-28T15:17:09.423Z,75.60
2018-11-28T15:19:39.120Z,75.67
2018-11-28T15:22:08.686Z,75.74
2018-11-28T15:24:38.255Z,75.74
2018-11-28T15:27:08.095Z,75.78
2018-11-28T15:29:37.698Z,75.77
2018-11-28T15:32:08.858Z,75.83
2018-11-28T15:34:37.475Z,75.93
2018-11-28T15:37:07.727Z,75.82
2018-11-28T15:39:37.364Z,75.83
2018-11-28T15:42:25.982Z,75.83
2018-11-28T15:44:58.164Z,75.87
2018-11-28T15:47:27.885Z,75.93
2018-11-28T15:49:57.544Z,75.97
2018-11-28T15:52:27.148Z,76.03
2018-11-28T15:55:15.655Z,76.11
2018-11-28T15:57:45.258Z,76.19
2018-11-28T16:00:34.551Z,76.21
2018-11-28T16:03:04.114Z,76.31
2018-11-28T16:05:33.712Z,76.34
2018-11-28T16:08:03.797Z,76.54
2018-11-28T16:10:37.020Z,76.59
2018-11-28T16:13:07.154Z,76.68
2018-11-28T16:15:38.836Z,76.75
2018-11-28T16:18:08.613Z,76.81
2018-11-28T16:20:38.216Z,76.91
2018-11-28T16:23:08.167Z,76.91
2018-11-28T16:25:37.841Z,76.96
2018-11-28T16:28:26.892Z,77.02
2018-11-28T16:30:56.647Z,77.11
2018-11-28T16:33:26.280Z,77.10
2018-11-28T16:35:55.921Z,77.17
2018-11-28T16:38:25.582Z,77.13
2018-11-28T16:40:55.214Z,77.22
2018-11-28T16:43:24.860Z,77.25
2018-11-28T16:45:54.610Z,77.28
2018-11-28T16:48:24.187Z,77.28
2018-11-28T16:50:53.848Z,77.26
2018-11-28T16:53:23.702Z,77.31
2018-11-28T16:55:53.321Z,77.42
2018-11-28T16:58:22.974Z,77.37
2018-11-28T17:00:52.642Z,77.41
2018-11-28T17:03:22.233Z,77.43
2018-11-28T17:05:51.872Z,77.40
2018-11-28T17:08:40.737Z,77.45
2018-11-28T17:11:10.376Z,77.38
2018-11-28T17:13:39.964Z,77.30
2018-11-28T17:16:09.637Z,77.29
2018-11-28T17:18:39.280Z,77.33
2018-11-28T17:21:08.875Z,77.36
2018-11-28T17:23:38.672Z,77.30
2018-11-28T17:26:08.411Z,77.44
2018-11-28T17:28:38.069Z,77.50
2018-11-28T17:31:07.890Z,77.64
2018-11-28T17:33:37.406Z,77.78
2018-11-28T17:36:07.016Z,77.89
2018-11-28T17:38:37.477Z,77.69
2018-11-28T17:41:25.140Z,77.62
2018-11-28T17:43:54.810Z,77.62
2018-11-28T17:46:24.382Z,77.66
2018-11-28T17:48:54.035Z,77.62
2018-11-28T17:51:23.875Z,77.52
2018-11-28T17:53:53.478Z,77.59
2018-11-28T17:56:23.121Z,77.53
2018-11-28T17:58:52.782Z,77.53
2018-11-28T18:01:22.354Z,77.42
2018-11-28T18:03:51.967Z,77.44
2018-11-28T18:06:21.837Z,77.46
2018-11-28T18:08:51.405Z,77.48
2018-11-28T18:11:40.000Z,77.53
2018-11-28T18:14:09.738Z,77.44
2018-11-28T18:16:39.326Z,77.55
2018-11-28T18:19:09.077Z,77.64
2018-11-28T18:21:38.686Z,77.77
2018-11-28T18:24:08.272Z,77.74
2018-11-28T18:26:38.031Z,77.67
2018-11-28T18:29:07.860Z,77.60
2018-11-28T18:31:37.445Z,77.54
2018-11-28T18:34:07.275Z,77.60
2018-11-28T18:36:37.241Z,77.65
2018-11-28T18:39:09.092Z,77.69
2018-11-28T18:41:40.420Z,77.69
2018-11-28T18:44:10.316Z,77.69
2018-11-28T18:46:39.913Z,77.69
2018-11-28T18:49:09.939Z,77.58
2018-11-28T18:51:39.751Z,77.69
2018-11-28T18:54:09.323Z,77.80
2018-11-28T18:56:39.062Z,77.93
2018-11-28T18:59:08.797Z,77.96
2018-11-28T19:01:38.333Z,78.09
2018-11-28T19:04:07.957Z,78.12
2018-11-28T19:06:37.891Z,78.20
2018-11-28T19:09:11.449Z,78.31
2018-11-28T19:11:41.217Z,78.42
2018-11-28T19:14:12.352Z,78.57
2018-11-28T19:16:40.572Z,78.66
2018-11-28T19:19:10.538Z,78.73
2018-11-28T19:21:40.236Z,78.80
2018-11-28T19:24:09.866Z,78.87
2018-11-28T19:26:39.601Z,78.66
2018-11-28T19:29:09.197Z,78.74
2018-11-28T19:31:58.036Z,78.98
2018-11-28T19:34:27.624Z,79.07
2018-11-28T19:36:57.234Z,79.04
2018-11-28T19:39:27.155Z,78.93
2018-11-28T19:41:56.836Z,78.91
2018-11-28T19:44:26.474Z,78.97
2018-11-28T19:46:56.389Z,78.93
2018-11-28T19:49:26.043Z,79.09
2018-11-28T19:51:55.645Z,79.16
2018-11-28T19:54:25.411Z,79.18
2018-11-28T19:57:13.654Z,79.27
2018-11-28T19:59:43.675Z,79.27
2018-11-28T20:02:13.335Z,79.37
2018-11-28T20:04:42.905Z,79.40
2018-11-28T20:07:12.635Z,79.53
2018-11-28T20:09:42.197Z,79.52
2018-11-28T20:12:11.819Z,79.56
2018-11-28T20:14:48.775Z,79.66
2018-11-28T20:17:37.554Z,79.56
2018-11-28T20:20:09.621Z,79.45
2018-11-28T20:22:39.328Z,79.43
2018-11-28T20:25:29.213Z,79.42
2018-11-28T20:28:02.040Z,79.42
2018-11-28T20:30:50.909Z,79.40
2018-11-28T20:33:20.425Z,79.48
2018-11-28T20:35:50.745Z,79.56
2018-11-28T20:38:39.532Z,79.76
2018-11-28T20:41:09.104Z,79.75
2018-11-28T20:43:38.947Z,79.52
2018-11-28T20:46:09.022Z,79.32
2018-11-28T20:48:57.288Z,79.14
2018-11-28T20:51:27.073Z,79.07
2018-11-28T20:54:15.312Z,79.04
2018-11-28T20:56:45.039Z,79.07
2018-11-28T20:59:14.613Z,79.07
2018-11-28T21:01:44.215Z,79.00
2018-11-28T21:04:14.100Z,78.97
2018-11-28T21:06:43.705Z,78.94
2018-11-28T21:09:32.075Z,78.96
2018-11-28T21:14:57.731Z,78.88
2018-11-28T21:17:27.300Z,78.80
2018-11-28T21:19:57.023Z,78.86
2018-11-28T21:22:27.851Z,78.83
2018-11-28T21:24:57.450Z,78.84
2018-11-28T21:27:27.105Z,78.87
2018-11-28T21:29:56.766Z,78.87
2018-11-28T21:32:26.352Z,78.94
2018-11-28T21:34:56.016Z,78.92
2018-11-28T21:37:25.615Z,78.88
2018-11-28T21:40:14.725Z,78.87
2018-11-28T21:42:56.054Z,78.93
2018-11-28T21:45:45.300Z,79.01
2018-11-28T21:48:14.994Z,79.13
2018-11-28T21:50:44.552Z,79.14
2018-11-28T21:53:14.322Z,79.15
2018-11-28T21:56:02.609Z,79.13
2018-11-28T21:58:32.376Z,79.08
2018-11-28T22:01:01.956Z,78.91
2018-11-28T22:03:31.590Z,78.81
2018-11-28T22:06:01.412Z,78.78
2018-11-28T22:08:30.966Z,78.85
2018-11-28T22:11:03.020Z,78.92
2018-11-28T22:13:32.833Z,78.87
2018-11-28T22:16:02.401Z,78.98
2018-11-28T22:18:32.102Z,79.12
2018-11-28T22:21:01.916Z,79.16
2018-11-28T22:23:31.543Z,79.33
2018-11-28T22:26:03.374Z,79.38
2018-11-28T22:28:33.026Z,79.43
2018-11-28T22:31:02.577Z,79.56
2018-11-28T22:33:32.271Z,79.71
2018-11-28T22:36:01.881Z,79.73
2018-11-28T22:38:31.551Z,79.79
2018-11-28T22:41:01.189Z,79.97
2018-11-28T22:43:30.747Z,80.06
2018-11-28T22:46:00.317Z,80.31
2018-11-28T22:48:29.993Z,80.28
2018-11-28T22:50:59.601Z,80.45
2018-11-28T22:53:29.172Z,80.64
2018-11-28T22:55:59.078Z,80.65
2018-11-28T22:58:28.650Z,80.72
2018-11-28T23:01:17.209Z,80.84
2018-11-28T23:04:05.624Z,80.84
2018-11-28T23:06:35.398Z,80.76
2018-11-28T23:09:05.786Z,80.96
2018-11-28T23:11:35.349Z,80.91
2018-11-28T23:14:05.138Z,81.04
2018-11-28T23:16:34.716Z,81.20
2018-11-28T23:19:04.304Z,81.22
2018-11-28T23:21:34.003Z,81.32
2018-11-28T23:24:22.712Z,81.45
2018-11-28T23:26:52.535Z,81.51
2018-11-28T23:29:22.107Z,81.60
2018-11-28T23:31:51.742Z,81.65
2018-11-28T23:34:21.399Z,81.84
2018-11-28T23:36:50.961Z,81.83
2018-11-28T23:39:20.529Z,81.69
2018-11-28T23:41:50.369Z,81.61
2018-11-28T23:44:19.962Z,81.54
2018-11-28T23:46:49.529Z,81.62
2018-11-28T23:49:20.121Z,81.63
2018-11-28T23:51:48.844Z,81.67
2018-11-28T23:54:18.411Z,82.01
2018-11-28T23:56:48.210Z,82.19
2018-11-28T23:59:17.780Z,82.27
